Aviation Digital Data Service (ADDS)

Output produced by METARs form (0243 UTC 15 August 2020)
found at http://www.aviationweather.gov/metar/data/
 
Forecast for: UKKK (KIEV/ZHYLIANY , UA)
Text: TAF UKKK 142302Z 1500/1524 VRB01MPS 9999 SCT020
Forecast period: 0000 to 0700 UTC 15 August 2020
Forecast type: FROM: standard forecast or significant change
Winds: variable direction winds at 2 MPH (2 knots; 1.0 m/s)
Visibility: 6 or more miles (10+ km)
Ceiling: at least 12,000 feet AGL
Clouds: scattered clouds at 2000 feet AGL
Weather: no significant weather forecast for this period
Text: BECMG 1507/1509 07003G08MPS
Forecast period: 0700 UTC 15 August 2020 to 0000 UTC 16 August 2020
Forecast type: BECOMING: Conditions expected to become as follows by 0900 UTC 15 August 2020
Winds: from the ENE (70 degrees) at 7 MPH (6 knots; 3.1 m/s)
gusting to 18 MPH (16 knots; 8.2 m/s)
Visibility: 6 or more miles (10+ km)
Ceiling: at least 12,000 feet AGL
Clouds: scattered clouds at 2000 feet AGL
Weather: no significant weather forecast for this period